sensor_id;sensor_type;location;lat;lon;timestamp;P1;durP1;ratioP1;P2;durP2;ratioP2
21554;SDS011;10938;44.794;-0.676;2023-06-22T00:00:50;1.25;;;0.38;;
21554;SDS011;10938;44.794;-0.676;2023-06-22T00:03:17;0.47;;;0.47;;
21554;SDS011;10938;44.794;-0.676;2023-06-22T00:05:42;0.82;;;0.70;;
21554;SDS011;10938;44.794;-0.676;2023-06-22T00:08:08;0.40;;;0.32;;
21554;SDS011;10938;44.794;-0.676;2023-06-22T00:10:33;0.93;;;0.80;;
21554;SDS011;10938;44.794;-0.676;2023-06-22T00:12:58;0.80;;;0.47;;
21554;SDS011;10938;44.794;-0.676;2023-06-22T00:15:23;0.20;;;0.20;;
21554;SDS011;10938;44.794;-0.676;2023-06-22T00:17:49;0.30;;;0.30;;
21554;SDS011;10938;44.794;-0.676;2023-06-22T00:20:14;0.90;;;0.45;;
21554;SDS011;10938;44.794;-0.676;2023-06-22T00:22:40;0.25;;;0.25;;
21554;SDS011;10938;44.794;-0.676;2023-06-22T00:25:08;0.50;;;0.50;;
21554;SDS011;10938;44.794;-0.676;2023-06-22T00:27:34;0.32;;;0.32;;
21554;SDS011;10938;44.794;-0.676;2023-06-22T00:30:03;0.40;;;0.38;;
21554;SDS011;10938;44.794;-0.676;2023-06-22T00:32:28;0.25;;;0.25;;
21554;SDS011;10938;44.794;-0.676;2023-06-22T00:34:53;0.68;;;0.60;;
21554;SDS011;10938;44.794;-0.676;2023-06-22T00:37:19;0.33;;;0.33;;
21554;SDS011;10938;44.794;-0.676;2023-06-22T00:39:44;0.97;;;0.50;;
21554;SDS011;10938;44.794;-0.676;2023-06-22T00:42:09;0.37;;;0.37;;
21554;SDS011;10938;44.794;-0.676;2023-06-22T00:44:35;0.47;;;0.38;;
21554;SDS011;10938;44.794;-0.676;2023-06-22T00:47:00;0.40;;;0.40;;
21554;SDS011;10938;44.794;-0.676;2023-06-22T00:49:25;0.20;;;0.10;;
21554;SDS011;10938;44.794;-0.676;2023-06-22T00:51:51;0.20;;;0.20;;
21554;SDS011;10938;44.794;-0.676;2023-06-22T00:54:17;0.30;;;0.30;;
21554;SDS011;10938;44.794;-0.676;2023-06-22T00:56:55;0.35;;;0.35;;
21554;SDS011;10938;44.794;-0.676;2023-06-22T00:59:22;0.40;;;0.40;;
21554;SDS011;10938;44.794;-0.676;2023-06-22T01:01:48;1.02;;;0.57;;
21554;SDS011;10938;44.794;-0.676;2023-06-22T01:04:13;0.38;;;0.38;;
21554;SDS011;10938;44.794;-0.676;2023-06-22T01:06:41;0.13;;;0.13;;
21554;SDS011;10938;44.794;-0.676;2023-06-22T01:11:37;0.80;;;0.70;;
21554;SDS011;10938;44.794;-0.676;2023-06-22T01:14:10;0.05;;;0.05;;
21554;SDS011;10938;44.794;-0.676;2023-06-22T01:16:37;0.35;;;0.35;;
21554;SDS011;10938;44.794;-0.676;2023-06-22T01:19:09;0.20;;;0.20;;
21554;SDS011;10938;44.794;-0.676;2023-06-22T01:21:40;0.20;;;0.20;;
21554;SDS011;10938;44.794;-0.676;2023-06-22T01:24:21;0.20;;;0.20;;
21554;SDS011;10938;44.794;-0.676;2023-06-22T01:26:54;0.50;;;0.30;;
21554;SDS011;10938;44.794;-0.676;2023-06-22T01:29:20;0.40;;;0.20;;
21554;SDS011;10938;44.794;-0.676;2023-06-22T01:31:46;0.40;;;0.40;;
21554;SDS011;10938;44.794;-0.676;2023-06-22T01:34:13;0.20;;;0.20;;
21554;SDS011;10938;44.794;-0.676;2023-06-22T01:36:39;2.63;;;0.55;;
21554;SDS011;10938;44.794;-0.676;2023-06-22T01:39:06;2.10;;;0.88;;
21554;SDS011;10938;44.794;-0.676;2023-06-22T01:41:35;0.28;;;0.28;;
21554;SDS011;10938;44.794;-0.676;2023-06-22T01:44:02;1.17;;;0.40;;
21554;SDS011;10938;44.794;-0.676;2023-06-22T01:46:32;0.68;;;0.57;;
21554;SDS011;10938;44.794;-0.676;2023-06-22T01:48:58;0.22;;;0.22;;
21554;SDS011;10938;44.794;-0.676;2023-06-22T01:51:23;0.47;;;0.45;;
21554;SDS011;10938;44.794;-0.676;2023-06-22T01:53:49;0.30;;;0.30;;
21554;SDS011;10938;44.794;-0.676;2023-06-22T01:56:16;0.20;;;0.20;;
21554;SDS011;10938;44.794;-0.676;2023-06-22T01:58:45;1.85;;;0.55;;
21554;SDS011;10938;44.794;-0.676;2023-06-22T02:01:12;0.55;;;0.52;;
21554;SDS011;10938;44.794;-0.676;2023-06-22T02:03:44;0.30;;;0.30;;
21554;SDS011;10938;44.794;-0.676;2023-06-22T02:06:46;0.50;;;0.50;;
21554;SDS011;10938;44.794;-0.676;2023-06-22T02:09:08;0.45;;;0.40;;
21554;SDS011;10938;44.794;-0.676;2023-06-22T02:11:33;0.47;;;0.43;;
21554;SDS011;10938;44.794;-0.676;2023-06-22T02:14:01;0.20;;;0.20;;
21554;SDS011;10938;44.794;-0.676;2023-06-22T02:16:27;0.40;;;0.40;;
21554;SDS011;10938;44.794;-0.676;2023-06-22T02:18:54;0.50;;;0.50;;
21554;SDS011;10938;44.794;-0.676;2023-06-22T02:21:20;0.55;;;0.45;;
21554;SDS011;10938;44.794;-0.676;2023-06-22T02:23:46;0.40;;;0.40;;
21554;SDS011;10938;44.794;-0.676;2023-06-22T02:26:11;0.15;;;0.15;;
21554;SDS011;10938;44.794;-0.676;2023-06-22T02:28:37;0.55;;;0.43;;
21554;SDS011;10938;44.794;-0.676;2023-06-22T02:31:02;0.50;;;0.33;;
21554;SDS011;10938;44.794;-0.676;2023-06-22T02:33:28;0.53;;;0.53;;
21554;SDS011;10938;44.794;-0.676;2023-06-22T02:35:56;0.40;;;0.40;;
21554;SDS011;10938;44.794;-0.676;2023-06-22T02:38:21;0.43;;;0.37;;
21554;SDS011;10938;44.794;-0.676;2023-06-22T02:40:48;0.45;;;0.45;;
21554;SDS011;10938;44.794;-0.676;2023-06-22T02:43:14;0.17;;;0.17;;
21554;SDS011;10938;44.794;-0.676;2023-06-22T02:45:39;0.45;;;0.30;;
21554;SDS011;10938;44.794;-0.676;2023-06-22T02:48:04;0.23;;;0.23;;
21554;SDS011;10938;44.794;-0.676;2023-06-22T02:50:30;0.77;;;0.60;;
21554;SDS011;10938;44.794;-0.676;2023-06-22T02:52:55;0.40;;;0.40;;
21554;SDS011;10938;44.794;-0.676;2023-06-22T02:55:20;0.30;;;0.30;;
21554;SDS011;10938;44.794;-0.676;2023-06-22T02:57:46;0.30;;;0.30;;
21554;SDS011;10938;44.794;-0.676;2023-06-22T03:00:13;0.68;;;0.68;;
21554;SDS011;10938;44.794;-0.676;2023-06-22T03:02:46;0.30;;;0.30;;
21554;SDS011;10938;44.794;-0.676;2023-06-22T03:05:12;3.25;;;0.35;;
21554;SDS011;10938;44.794;-0.676;2023-06-22T03:07:42;0.82;;;0.52;;
21554;SDS011;10938;44.794;-0.676;2023-06-22T03:10:10;1.25;;;0.52;;
21554;SDS011;10938;44.794;-0.676;2023-06-22T03:12:36;1.65;;;0.70;;
21554;SDS011;10938;44.794;-0.676;2023-06-22T03:15:02;0.35;;;0.35;;
21554;SDS011;10938;44.794;-0.676;2023-06-22T03:17:27;0.60;;;0.47;;
21554;SDS011;10938;44.794;-0.676;2023-06-22T03:19:52;0.30;;;0.30;;
21554;SDS011;10938;44.794;-0.676;2023-06-22T03:22:18;0.40;;;0.40;;
21554;SDS011;10938;44.794;-0.676;2023-06-22T03:24:43;0.50;;;0.50;;
21554;SDS011;10938;44.794;-0.676;2023-06-22T03:27:08;0.85;;;0.50;;
21554;SDS011;10938;44.794;-0.676;2023-06-22T03:29:34;0.43;;;0.40;;
21554;SDS011;10938;44.794;-0.676;2023-06-22T03:31:59;0.30;;;0.30;;
21554;SDS011;10938;44.794;-0.676;2023-06-22T03:34:24;0.53;;;0.53;;
21554;SDS011;10938;44.794;-0.676;2023-06-22T03:36:50;1.50;;;0.90;;
21554;SDS011;10938;44.794;-0.676;2023-06-22T03:39:15;0.40;;;0.40;;
21554;SDS011;10938;44.794;-0.676;2023-06-22T03:41:41;0.60;;;0.50;;
21554;SDS011;10938;44.794;-0.676;2023-06-22T03:44:06;0.90;;;0.60;;
21554;SDS011;10938;44.794;-0.676;2023-06-22T03:46:31;0.55;;;0.55;;
21554;SDS011;10938;44.794;-0.676;2023-06-22T03:48:57;0.40;;;0.40;;
21554;SDS011;10938;44.794;-0.676;2023-06-22T03:51:22;0.45;;;0.45;;
21554;SDS011;10938;44.794;-0.676;2023-06-22T03:53:48;0.60;;;0.50;;
21554;SDS011;10938;44.794;-0.676;2023-06-22T03:56:13;0.65;;;0.65;;
21554;SDS011;10938;44.794;-0.676;2023-06-22T03:58:45;1.00;;;0.73;;
21554;SDS011;10938;44.794;-0.676;2023-06-22T04:01:10;0.77;;;0.73;;
21554;SDS011;10938;44.794;-0.676;2023-06-22T04:03:36;0.50;;;0.40;;
21554;SDS011;10938;44.794;-0.676;2023-06-22T04:06:02;0.77;;;0.60;;
21554;SDS011;10938;44.794;-0.676;2023-06-22T04:08:27;1.15;;;0.65;;
21554;SDS011;10938;44.794;-0.676;2023-06-22T04:10:52;0.73;;;0.73;;
21554;SDS011;10938;44.794;-0.676;2023-06-22T04:13:17;0.70;;;0.70;;
21554;SDS011;10938;44.794;-0.676;2023-06-22T04:15:43;0.35;;;0.35;;
21554;SDS011;10938;44.794;-0.676;2023-06-22T04:18:08;0.38;;;0.38;;
21554;SDS011;10938;44.794;-0.676;2023-06-22T04:20:33;1.83;;;1.10;;
21554;SDS011;10938;44.794;-0.676;2023-06-22T04:22:59;1.90;;;0.90;;
21554;SDS011;10938;44.794;-0.676;2023-06-22T04:25:24;0.43;;;0.43;;
21554;SDS011;10938;44.794;-0.676;2023-06-22T04:27:49;1.03;;;0.93;;
21554;SDS011;10938;44.794;-0.676;2023-06-22T04:30:14;0.68;;;0.60;;
21554;SDS011;10938;44.794;-0.676;2023-06-22T04:32:41;2.20;;;0.65;;
21554;SDS011;10938;44.794;-0.676;2023-06-22T04:35:06;0.85;;;0.85;;
21554;SDS011;10938;44.794;-0.676;2023-06-22T04:37:32;1.75;;;0.70;;
21554;SDS011;10938;44.794;-0.676;2023-06-22T04:39:58;0.65;;;0.65;;
21554;SDS011;10938;44.794;-0.676;2023-06-22T04:42:25;0.57;;;0.57;;
21554;SDS011;10938;44.794;-0.676;2023-06-22T04:44:51;0.70;;;0.70;;
21554;SDS011;10938;44.794;-0.676;2023-06-22T04:47:16;0.82;;;0.47;;
21554;SDS011;10938;44.794;-0.676;2023-06-22T04:49:41;0.68;;;0.68;;
21554;SDS011;10938;44.794;-0.676;2023-06-22T04:52:08;0.60;;;0.60;;
21554;SDS011;10938;44.794;-0.676;2023-06-22T04:54:35;0.40;;;0.40;;
21554;SDS011;10938;44.794;-0.676;2023-06-22T04:57:01;1.02;;;0.70;;
21554;SDS011;10938;44.794;-0.676;2023-06-22T04:59:26;0.77;;;0.70;;
21554;SDS011;10938;44.794;-0.676;2023-06-22T05:01:57;1.70;;;1.08;;
21554;SDS011;10938;44.794;-0.676;2023-06-22T05:04:23;1.13;;;1.02;;
21554;SDS011;10938;44.794;-0.676;2023-06-22T05:06:49;0.88;;;0.88;;
21554;SDS011;10938;44.794;-0.676;2023-06-22T05:09:14;1.55;;;0.93;;
21554;SDS011;10938;44.794;-0.676;2023-06-22T05:11:39;0.88;;;0.88;;
21554;SDS011;10938;44.794;-0.676;2023-06-22T05:14:05;0.90;;;0.90;;
21554;SDS011;10938;44.794;-0.676;2023-06-22T05:16:30;0.82;;;0.82;;
21554;SDS011;10938;44.794;-0.676;2023-06-22T05:18:56;1.30;;;0.93;;
21554;SDS011;10938;44.794;-0.676;2023-06-22T05:21:22;3.03;;;1.05;;
21554;SDS011;10938;44.794;-0.676;2023-06-22T05:23:48;0.98;;;0.95;;
21554;SDS011;10938;44.794;-0.676;2023-06-22T05:26:13;1.33;;;1.20;;
21554;SDS011;10938;44.794;-0.676;2023-06-22T05:28:39;2.37;;;1.20;;
21554;SDS011;10938;44.794;-0.676;2023-06-22T05:31:04;1.15;;;1.10;;
21554;SDS011;10938;44.794;-0.676;2023-06-22T05:33:29;1.80;;;1.25;;
21554;SDS011;10938;44.794;-0.676;2023-06-22T05:35:55;2.47;;;1.53;;
21554;SDS011;10938;44.794;-0.676;2023-06-22T05:38:20;1.52;;;1.30;;
21554;SDS011;10938;44.794;-0.676;2023-06-22T05:40:45;1.25;;;1.13;;
21554;SDS011;10938;44.794;-0.676;2023-06-22T05:43:11;1.67;;;1.20;;
21554;SDS011;10938;44.794;-0.676;2023-06-22T05:45:36;1.90;;;1.60;;
21554;SDS011;10938;44.794;-0.676;2023-06-22T05:48:01;0.70;;;0.70;;
21554;SDS011;10938;44.794;-0.676;2023-06-22T05:50:27;0.85;;;0.85;;
21554;SDS011;10938;44.794;-0.676;2023-06-22T05:52:52;2.33;;;1.30;;
21554;SDS011;10938;44.794;-0.676;2023-06-22T05:55:17;1.38;;;1.08;;
21554;SDS011;10938;44.794;-0.676;2023-06-22T05:57:44;0.85;;;0.80;;
21554;SDS011;10938;44.794;-0.676;2023-06-22T06:00:09;0.93;;;0.90;;
21554;SDS011;10938;44.794;-0.676;2023-06-22T06:02:36;1.30;;;0.90;;
21554;SDS011;10938;44.794;-0.676;2023-06-22T06:05:01;1.40;;;1.10;;
21554;SDS011;10938;44.794;-0.676;2023-06-22T06:07:27;1.00;;;0.77;;
21554;SDS011;10938;44.794;-0.676;2023-06-22T06:09:53;0.68;;;0.68;;
21554;SDS011;10938;44.794;-0.676;2023-06-22T06:12:18;0.70;;;0.70;;
21554;SDS011;10938;44.794;-0.676;2023-06-22T06:14:45;1.20;;;1.10;;
21554;SDS011;10938;44.794;-0.676;2023-06-22T06:17:12;0.95;;;0.90;;
21554;SDS011;10938;44.794;-0.676;2023-06-22T06:19:37;0.90;;;0.80;;
21554;SDS011;10938;44.794;-0.676;2023-06-22T06:22:03;0.80;;;0.80;;
21554;SDS011;10938;44.794;-0.676;2023-06-22T06:24:28;0.73;;;0.73;;
21554;SDS011;10938;44.794;-0.676;2023-06-22T06:26:54;1.23;;;0.93;;
21554;SDS011;10938;44.794;-0.676;2023-06-22T06:29:19;0.53;;;0.53;;
21554;SDS011;10938;44.794;-0.676;2023-06-22T06:31:44;1.30;;;0.70;;
21554;SDS011;10938;44.794;-0.676;2023-06-22T06:34:09;1.92;;;1.15;;
21554;SDS011;10938;44.794;-0.676;2023-06-22T06:36:35;0.90;;;0.83;;
21554;SDS011;10938;44.794;-0.676;2023-06-22T06:39:00;0.63;;;0.63;;
21554;SDS011;10938;44.794;-0.676;2023-06-22T06:41:26;0.73;;;0.73;;
21554;SDS011;10938;44.794;-0.676;2023-06-22T06:43:51;1.23;;;0.85;;
21554;SDS011;10938;44.794;-0.676;2023-06-22T06:46:17;1.45;;;1.13;;
21554;SDS011;10938;44.794;-0.676;2023-06-22T06:48:44;1.10;;;1.02;;
21554;SDS011;10938;44.794;-0.676;2023-06-22T06:51:09;0.53;;;0.53;;
21554;SDS011;10938;44.794;-0.676;2023-06-22T06:53:35;0.60;;;0.60;;
21554;SDS011;10938;44.794;-0.676;2023-06-22T06:56:00;1.15;;;0.82;;
21554;SDS011;10938;44.794;-0.676;2023-06-22T06:58:26;1.00;;;0.73;;
21554;SDS011;10938;44.794;-0.676;2023-06-22T07:00:51;1.37;;;0.80;;
21554;SDS011;10938;44.794;-0.676;2023-06-22T07:03:16;1.03;;;0.80;;
21554;SDS011;10938;44.794;-0.676;2023-06-22T07:05:41;0.93;;;0.90;;
21554;SDS011;10938;44.794;-0.676;2023-06-22T07:08:07;1.77;;;0.93;;
21554;SDS011;10938;44.794;-0.676;2023-06-22T07:10:32;0.73;;;0.63;;
21554;SDS011;10938;44.794;-0.676;2023-06-22T07:12:58;0.90;;;0.77;;
21554;SDS011;10938;44.794;-0.676;2023-06-22T07:15:23;1.65;;;1.13;;
21554;SDS011;10938;44.794;-0.676;2023-06-22T07:17:48;0.73;;;0.73;;
21554;SDS011;10938;44.794;-0.676;2023-06-22T07:20:13;1.27;;;0.87;;
21554;SDS011;10938;44.794;-0.676;2023-06-22T07:22:39;0.97;;;0.90;;
21554;SDS011;10938;44.794;-0.676;2023-06-22T07:25:10;1.92;;;1.42;;
21554;SDS011;10938;44.794;-0.676;2023-06-22T07:27:39;1.58;;;0.82;;
21554;SDS011;10938;44.794;-0.676;2023-06-22T07:30:08;1.30;;;0.95;;
21554;SDS011;10938;44.794;-0.676;2023-06-22T07:32:33;0.70;;;0.70;;
21554;SDS011;10938;44.794;-0.676;2023-06-22T07:34:59;1.20;;;1.08;;
21554;SDS011;10938;44.794;-0.676;2023-06-22T07:37:24;0.80;;;0.65;;
21554;SDS011;10938;44.794;-0.676;2023-06-22T07:39:50;2.40;;;0.90;;
21554;SDS011;10938;44.794;-0.676;2023-06-22T07:42:18;1.10;;;0.98;;
21554;SDS011;10938;44.794;-0.676;2023-06-22T07:44:44;0.60;;;0.60;;
21554;SDS011;10938;44.794;-0.676;2023-06-22T07:47:09;0.80;;;0.80;;
21554;SDS011;10938;44.794;-0.676;2023-06-22T07:49:35;1.23;;;0.90;;
21554;SDS011;10938;44.794;-0.676;2023-06-22T07:52:00;2.23;;;1.00;;
21554;SDS011;10938;44.794;-0.676;2023-06-22T07:54:26;2.17;;;0.80;;
21554;SDS011;10938;44.794;-0.676;2023-06-22T07:56:52;1.10;;;0.90;;
21554;SDS011;10938;44.794;-0.676;2023-06-22T07:59:17;1.77;;;0.90;;
21554;SDS011;10938;44.794;-0.676;2023-06-22T08:01:43;0.90;;;0.90;;
21554;SDS011;10938;44.794;-0.676;2023-06-22T08:04:08;1.73;;;1.20;;
21554;SDS011;10938;44.794;-0.676;2023-06-22T08:06:33;1.80;;;1.23;;
21554;SDS011;10938;44.794;-0.676;2023-06-22T08:08:59;1.15;;;1.13;;
21554;SDS011;10938;44.794;-0.676;2023-06-22T08:11:24;1.07;;;1.00;;
21554;SDS011;10938;44.794;-0.676;2023-06-22T08:13:50;1.23;;;1.20;;
21554;SDS011;10938;44.794;-0.676;2023-06-22T08:16:15;1.25;;;1.15;;
21554;SDS011;10938;44.794;-0.676;2023-06-22T08:18:41;1.03;;;0.93;;
21554;SDS011;10938;44.794;-0.676;2023-06-22T08:21:06;1.20;;;1.10;;
21554;SDS011;10938;44.794;-0.676;2023-06-22T08:23:31;1.60;;;1.50;;
21554;SDS011;10938;44.794;-0.676;2023-06-22T08:25:56;1.50;;;1.40;;
21554;SDS011;10938;44.794;-0.676;2023-06-22T08:28:22;1.58;;;1.48;;
21554;SDS011;10938;44.794;-0.676;2023-06-22T08:30:47;1.30;;;1.20;;
21554;SDS011;10938;44.794;-0.676;2023-06-22T08:33:13;1.13;;;1.03;;
21554;SDS011;10938;44.794;-0.676;2023-06-22T08:35:38;0.95;;;0.95;;
21554;SDS011;10938;44.794;-0.676;2023-06-22T08:38:03;1.10;;;1.10;;
21554;SDS011;10938;44.794;-0.676;2023-06-22T08:40:29;1.83;;;1.70;;
21554;SDS011;10938;44.794;-0.676;2023-06-22T08:42:54;2.50;;;1.03;;
21554;SDS011;10938;44.794;-0.676;2023-06-22T08:45:20;1.38;;;1.05;;
21554;SDS011;10938;44.794;-0.676;2023-06-22T08:47:45;1.33;;;1.25;;
21554;SDS011;10938;44.794;-0.676;2023-06-22T08:50:11;1.27;;;1.17;;
21554;SDS011;10938;44.794;-0.676;2023-06-22T08:52:37;0.80;;;0.80;;
21554;SDS011;10938;44.794;-0.676;2023-06-22T08:55:02;2.42;;;0.88;;
21554;SDS011;10938;44.794;-0.676;2023-06-22T08:57:28;0.85;;;0.85;;
21554;SDS011;10938;44.794;-0.676;2023-06-22T08:59:54;0.90;;;0.85;;
21554;SDS011;10938;44.794;-0.676;2023-06-22T09:02:23;1.23;;;1.15;;
21554;SDS011;10938;44.794;-0.676;2023-06-22T09:04:48;1.47;;;1.20;;
21554;SDS011;10938;44.794;-0.676;2023-06-22T09:07:14;0.85;;;0.85;;
21554;SDS011;10938;44.794;-0.676;2023-06-22T09:09:39;0.83;;;0.83;;
21554;SDS011;10938;44.794;-0.676;2023-06-22T09:12:05;1.30;;;1.20;;
21554;SDS011;10938;44.794;-0.676;2023-06-22T09:14:31;1.13;;;1.02;;
21554;SDS011;10938;44.794;-0.676;2023-06-22T09:16:57;1.00;;;1.00;;
21554;SDS011;10938;44.794;-0.676;2023-06-22T09:19:23;1.23;;;1.20;;
21554;SDS011;10938;44.794;-0.676;2023-06-22T09:21:48;1.43;;;1.33;;
21554;SDS011;10938;44.794;-0.676;2023-06-22T09:24:13;1.20;;;1.10;;
21554;SDS011;10938;44.794;-0.676;2023-06-22T09:26:39;1.27;;;1.23;;
21554;SDS011;10938;44.794;-0.676;2023-06-22T09:29:04;1.10;;;1.10;;
21554;SDS011;10938;44.794;-0.676;2023-06-22T09:31:30;1.90;;;1.70;;
21554;SDS011;10938;44.794;-0.676;2023-06-22T09:33:55;1.20;;;1.20;;
21554;SDS011;10938;44.794;-0.676;2023-06-22T09:36:21;1.17;;;1.13;;
21554;SDS011;10938;44.794;-0.676;2023-06-22T09:38:47;1.30;;;1.30;;
21554;SDS011;10938;44.794;-0.676;2023-06-22T09:41:12;1.33;;;1.27;;
21554;SDS011;10938;44.794;-0.676;2023-06-22T09:43:37;1.13;;;1.13;;
21554;SDS011;10938;44.794;-0.676;2023-06-22T09:46:03;1.00;;;1.00;;
21554;SDS011;10938;44.794;-0.676;2023-06-22T09:48:28;1.10;;;1.10;;
21554;SDS011;10938;44.794;-0.676;2023-06-22T09:50:55;0.90;;;0.90;;
21554;SDS011;10938;44.794;-0.676;2023-06-22T09:53:20;1.37;;;1.27;;
21554;SDS011;10938;44.794;-0.676;2023-06-22T09:55:46;0.93;;;0.93;;
21554;SDS011;10938;44.794;-0.676;2023-06-22T09:58:11;1.40;;;1.30;;
21554;SDS011;10938;44.794;-0.676;2023-06-22T10:00:36;1.37;;;1.27;;
21554;SDS011;10938;44.794;-0.676;2023-06-22T10:03:01;1.00;;;1.00;;
21554;SDS011;10938;44.794;-0.676;2023-06-22T10:05:27;1.20;;;1.10;;
21554;SDS011;10938;44.794;-0.676;2023-06-22T10:07:52;1.17;;;1.07;;
21554;SDS011;10938;44.794;-0.676;2023-06-22T10:10:17;1.00;;;1.00;;
21554;SDS011;10938;44.794;-0.676;2023-06-22T10:12:45;1.30;;;1.20;;
21554;SDS011;10938;44.794;-0.676;2023-06-22T10:15:14;1.38;;;1.27;;
21554;SDS011;10938;44.794;-0.676;2023-06-22T10:17:40;0.98;;;0.98;;
21554;SDS011;10938;44.794;-0.676;2023-06-22T10:20:06;0.95;;;0.95;;
21554;SDS011;10938;44.794;-0.676;2023-06-22T10:22:38;0.90;;;0.90;;
21554;SDS011;10938;44.794;-0.676;2023-06-22T10:25:03;1.10;;;1.00;;
21554;SDS011;10938;44.794;-0.676;2023-06-22T10:27:29;1.13;;;1.05;;
21554;SDS011;10938;44.794;-0.676;2023-06-22T10:29:54;1.30;;;1.20;;
21554;SDS011;10938;44.794;-0.676;2023-06-22T10:32:19;1.00;;;1.00;;
21554;SDS011;10938;44.794;-0.676;2023-06-22T10:34:45;1.10;;;1.10;;
21554;SDS011;10938;44.794;-0.676;2023-06-22T10:37:10;1.10;;;1.00;;
21554;SDS011;10938;44.794;-0.676;2023-06-22T10:39:35;1.23;;;1.20;;
21554;SDS011;10938;44.794;-0.676;2023-06-22T10:42:00;2.07;;;1.47;;
21554;SDS011;10938;44.794;-0.676;2023-06-22T10:44:26;1.27;;;1.17;;
21554;SDS011;10938;44.794;-0.676;2023-06-22T10:46:51;1.07;;;0.90;;
21554;SDS011;10938;44.794;-0.676;2023-06-22T10:49:16;0.73;;;0.73;;
21554;SDS011;10938;44.794;-0.676;2023-06-22T10:51:41;1.00;;;0.90;;
21554;SDS011;10938;44.794;-0.676;2023-06-22T10:54:07;1.20;;;1.20;;
21554;SDS011;10938;44.794;-0.676;2023-06-22T10:56:32;0.87;;;0.87;;
21554;SDS011;10938;44.794;-0.676;2023-06-22T10:58:58;0.93;;;0.80;;
21554;SDS011;10938;44.794;-0.676;2023-06-22T11:01:24;1.07;;;0.97;;
21554;SDS011;10938;44.794;-0.676;2023-06-22T11:03:49;1.03;;;0.83;;
21554;SDS011;10938;44.794;-0.676;2023-06-22T11:06:14;0.83;;;0.83;;
21554;SDS011;10938;44.794;-0.676;2023-06-22T11:08:40;0.63;;;0.63;;
21554;SDS011;10938;44.794;-0.676;2023-06-22T11:11:05;0.70;;;0.70;;
21554;SDS011;10938;44.794;-0.676;2023-06-22T11:13:31;0.88;;;0.88;;
21554;SDS011;10938;44.794;-0.676;2023-06-22T11:15:56;1.13;;;1.10;;
21554;SDS011;10938;44.794;-0.676;2023-06-22T11:18:21;1.10;;;1.00;;
21554;SDS011;10938;44.794;-0.676;2023-06-22T11:20:48;0.82;;;0.82;;
21554;SDS011;10938;44.794;-0.676;2023-06-22T11:23:14;0.85;;;0.85;;
21554;SDS011;10938;44.794;-0.676;2023-06-22T11:25:39;1.20;;;1.10;;
21554;SDS011;10938;44.794;-0.676;2023-06-22T11:28:07;1.15;;;0.93;;
21554;SDS011;10938;44.794;-0.676;2023-06-22T11:30:32;1.87;;;1.00;;
21554;SDS011;10938;44.794;-0.676;2023-06-22T11:32:59;1.35;;;1.25;;
21554;SDS011;10938;44.794;-0.676;2023-06-22T11:35:24;1.30;;;1.20;;
21554;SDS011;10938;44.794;-0.676;2023-06-22T11:37:49;4.00;;;1.47;;
21554;SDS011;10938;44.794;-0.676;2023-06-22T11:40:15;2.05;;;1.25;;
21554;SDS011;10938;44.794;-0.676;2023-06-22T11:42:43;1.17;;;1.08;;
21554;SDS011;10938;44.794;-0.676;2023-06-22T11:45:08;1.52;;;1.42;;
21554;SDS011;10938;44.794;-0.676;2023-06-22T11:47:34;0.95;;;0.93;;
21554;SDS011;10938;44.794;-0.676;2023-06-22T11:49:59;2.25;;;1.40;;
21554;SDS011;10938;44.794;-0.676;2023-06-22T11:52:24;1.15;;;1.10;;
21554;SDS011;10938;44.794;-0.676;2023-06-22T11:54:52;2.03;;;1.50;;
21554;SDS011;10938;44.794;-0.676;2023-06-22T11:57:17;1.40;;;1.30;;
21554;SDS011;10938;44.794;-0.676;2023-06-22T11:59:42;1.10;;;1.00;;
21554;SDS011;10938;44.794;-0.676;2023-06-22T12:02:08;1.40;;;1.30;;
21554;SDS011;10938;44.794;-0.676;2023-06-22T12:04:34;1.48;;;1.17;;
21554;SDS011;10938;44.794;-0.676;2023-06-22T12:07:00;1.05;;;1.05;;
21554;SDS011;10938;44.794;-0.676;2023-06-22T12:09:25;1.50;;;1.30;;
21554;SDS011;10938;44.794;-0.676;2023-06-22T12:11:50;1.30;;;1.20;;
21554;SDS011;10938;44.794;-0.676;2023-06-22T12:14:15;0.83;;;0.83;;
21554;SDS011;10938;44.794;-0.676;2023-06-22T12:16:41;2.03;;;1.33;;
21554;SDS011;10938;44.794;-0.676;2023-06-22T12:19:06;1.42;;;1.27;;
21554;SDS011;10938;44.794;-0.676;2023-06-22T12:21:31;1.27;;;1.17;;
21554;SDS011;10938;44.794;-0.676;2023-06-22T12:23:57;1.50;;;1.27;;
21554;SDS011;10938;44.794;-0.676;2023-06-22T12:26:22;3.27;;;1.27;;
21554;SDS011;10938;44.794;-0.676;2023-06-22T12:28:47;1.60;;;1.50;;
21554;SDS011;10938;44.794;-0.676;2023-06-22T12:31:14;1.30;;;1.20;;
21554;SDS011;10938;44.794;-0.676;2023-06-22T12:33:39;1.80;;;1.17;;
21554;SDS011;10938;44.794;-0.676;2023-06-22T12:36:04;1.70;;;1.33;;
21554;SDS011;10938;44.794;-0.676;2023-06-22T12:38:30;1.00;;;1.00;;
21554;SDS011;10938;44.794;-0.676;2023-06-22T12:40:55;1.42;;;1.33;;
21554;SDS011;10938;44.794;-0.676;2023-06-22T12:43:21;1.20;;;1.10;;
21554;SDS011;10938;44.794;-0.676;2023-06-22T12:45:46;1.37;;;1.10;;
21554;SDS011;10938;44.794;-0.676;2023-06-22T12:48:11;1.07;;;1.00;;
21554;SDS011;10938;44.794;-0.676;2023-06-22T12:50:37;1.45;;;1.15;;
21554;SDS011;10938;44.794;-0.676;2023-06-22T12:53:03;1.27;;;1.17;;
21554;SDS011;10938;44.794;-0.676;2023-06-22T12:55:29;1.38;;;1.10;;
21554;SDS011;10938;44.794;-0.676;2023-06-22T12:57:54;1.38;;;1.10;;
21554;SDS011;10938;44.794;-0.676;2023-06-22T13:00:23;1.20;;;1.13;;
21554;SDS011;10938;44.794;-0.676;2023-06-22T13:02:48;2.80;;;1.00;;
21554;SDS011;10938;44.794;-0.676;2023-06-22T13:05:14;0.90;;;0.90;;
21554;SDS011;10938;44.794;-0.676;2023-06-22T13:07:39;1.20;;;1.10;;
21554;SDS011;10938;44.794;-0.676;2023-06-22T13:10:04;1.20;;;1.10;;
21554;SDS011;10938;44.794;-0.676;2023-06-22T13:12:30;0.95;;;0.93;;
21554;SDS011;10938;44.794;-0.676;2023-06-22T13:14:55;1.13;;;1.10;;
21554;SDS011;10938;44.794;-0.676;2023-06-22T13:20:13;1.20;;;1.10;;
21554;SDS011;10938;44.794;-0.676;2023-06-22T13:22:39;0.88;;;0.88;;
21554;SDS011;10938;44.794;-0.676;2023-06-22T13:25:08;1.00;;;1.00;;
21554;SDS011;10938;44.794;-0.676;2023-06-22T13:27:37;0.80;;;0.80;;
21554;SDS011;10938;44.794;-0.676;2023-06-22T13:30:02;1.17;;;1.00;;
21554;SDS011;10938;44.794;-0.676;2023-06-22T13:32:28;1.10;;;1.02;;
21554;SDS011;10938;44.794;-0.676;2023-06-22T13:34:53;0.87;;;0.80;;
21554;SDS011;10938;44.794;-0.676;2023-06-22T13:37:18;0.70;;;0.70;;
21554;SDS011;10938;44.794;-0.676;2023-06-22T13:39:44;0.90;;;0.90;;
21554;SDS011;10938;44.794;-0.676;2023-06-22T13:42:09;0.90;;;0.90;;
21554;SDS011;10938;44.794;-0.676;2023-06-22T13:44:35;0.73;;;0.73;;
21554;SDS011;10938;44.794;-0.676;2023-06-22T13:47:00;0.90;;;0.90;;
21554;SDS011;10938;44.794;-0.676;2023-06-22T13:49:25;1.40;;;1.20;;
21554;SDS011;10938;44.794;-0.676;2023-06-22T13:51:51;0.93;;;0.93;;
21554;SDS011;10938;44.794;-0.676;2023-06-22T13:54:16;1.93;;;1.10;;
21554;SDS011;10938;44.794;-0.676;2023-06-22T13:56:41;1.60;;;0.90;;
21554;SDS011;10938;44.794;-0.676;2023-06-22T13:59:06;0.93;;;0.93;;
21554;SDS011;10938;44.794;-0.676;2023-06-22T14:01:37;1.20;;;1.10;;
21554;SDS011;10938;44.794;-0.676;2023-06-22T14:04:04;1.17;;;1.02;;
21554;SDS011;10938;44.794;-0.676;2023-06-22T14:06:30;1.30;;;1.20;;
21554;SDS011;10938;44.794;-0.676;2023-06-22T14:08:55;1.70;;;1.10;;
21554;SDS011;10938;44.794;-0.676;2023-06-22T14:11:21;1.10;;;1.00;;
21554;SDS011;10938;44.794;-0.676;2023-06-22T14:13:46;0.90;;;0.90;;
21554;SDS011;10938;44.794;-0.676;2023-06-22T14:16:11;0.77;;;0.77;;
21554;SDS011;10938;44.794;-0.676;2023-06-22T14:18:37;1.00;;;0.90;;
21554;SDS011;10938;44.794;-0.676;2023-06-22T14:21:02;0.80;;;0.80;;
21554;SDS011;10938;44.794;-0.676;2023-06-22T14:23:30;1.30;;;1.13;;
21554;SDS011;10938;44.794;-0.676;2023-06-22T14:25:56;2.53;;;0.98;;
21554;SDS011;10938;44.794;-0.676;2023-06-22T14:28:21;1.17;;;1.08;;
21554;SDS011;10938;44.794;-0.676;2023-06-22T14:30:49;0.75;;;0.75;;